Terminal Aerodrome Forecast
Issued by NWS

Home | Current Version | Previous Version | Text Only | Print | Product List | Glossary On
Versions: 1 2 3 4 5 6 7 8 9 10 11 12 13 14 15
000
FTUS45 KGGW 211129
TAFOLF
TAF
KOLF 211129Z 2112/2212 04010KT P6SM SCT160
     FM211300 30009KT P6SM SCT160
     FM211500 29014G23KT P6SM FEW160
     FM220200 29011KT P6SM SKC
     FM220400 30007KT P6SM SKC=

USA.gov is the U.S. government's official web portal to all federal, state and local government web resources and services.